Time;durP1;ratioP1;P1;durP2;ratioP2;P2;SDS_P1;SDS_P2;PMS_P1;PMS_P2;Temp;Humidity;BMP_temperature;BMP_pressure;BME280_temperature;BME280_humidity;BME280_pressure;Samples;Min_cycle;Max_cycle;Signal;HPM_P1;HPM_P2
2023/09/26 00:00:59;;;;;;;11.50;11.00;;;15.50;99.90;;;;;;4889164;29;20496;-85
2023/09/26 00:03:31;;;;;;;11.33;10.80;;;15.50;1.00;;;;;;4895520;29;20474;-82
2023/09/26 00:06:00;;;;;;;10.77;10.27;;;15.50;1.00;;;;;;4896118;29;20463;-82
2023/09/26 00:08:28;;;;;;;10.10;9.80;;;15.50;99.90;;;;;;4892964;29;20503;-86
2023/09/26 00:10:57;;;;;;;11.70;11.00;;;15.50;99.90;;;;;;4896511;29;20453;-83
2023/09/26 00:13:25;;;;;;;11.00;10.60;;;15.40;99.90;;;;;;4895314;29;20535;-82
2023/09/26 00:15:53;;;;;;;10.47;10.13;;;15.50;99.90;;;;;;4894424;29;20463;-82
2023/09/26 00:18:25;;;;;;;11.17;10.70;;;15.40;99.90;;;;;;4897637;29;20961;-82
2023/09/26 00:20:55;;;;;;;11.90;11.40;;;15.30;99.90;;;;;;4896167;29;20505;-83
2023/09/26 00:23:23;;;;;;;11.47;11.07;;;15.30;99.90;;;;;;4892625;29;20471;-81
2023/09/26 00:25:51;;;;;;;12.17;11.70;;;15.20;99.90;;;;;;4894476;29;20459;-82
2023/09/26 00:28:19;;;;;;;11.50;11.00;;;15.20;99.90;;;;;;4891577;29;20450;-83
2023/09/26 00:30:48;;;;;;;11.20;10.80;;;15.20;99.90;;;;;;4894819;29;20506;-82
2023/09/26 00:33:16;;;;;;;11.27;10.77;;;15.20;99.90;;;;;;4895076;29;20516;-85
2023/09/26 00:35:47;;;;;;;11.30;10.80;;;15.20;99.90;;;;;;4893884;29;20480;-85
2023/09/26 00:38:17;;;;;;;10.77;10.33;;;15.20;99.90;;;;;;4897375;29;20466;-84
2023/09/26 00:40:45;;;;;;;11.50;10.63;;;15.20;99.90;;;;;;4887512;29;21318;-84
2023/09/26 00:43:21;;;;;;;10.30;10.00;;;15.20;99.90;;;;;;4889823;29;20550;-85
2023/09/26 00:45:56;;;;;;;11.23;10.73;;;15.10;99.90;;;;;;4893601;29;20470;-84
2023/09/26 00:48:25;;;;;;;11.07;10.50;;;15.10;1.00;;;;;;4879004;29;20459;-84
2023/09/26 00:50:55;;;;;;;11.37;10.87;;;15.00;99.90;;;;;;4871290;29;20562;-84
2023/09/26 00:53:28;;;;;;;11.20;10.57;;;14.90;99.90;;;;;;4880073;29;21686;-84
2023/09/26 00:55:58;;;;;;;11.23;10.93;;;14.90;1.00;;;;;;4897391;29;20526;-84
2023/09/26 00:58:27;;;;;;;11.53;11.10;;;14.90;1.00;;;;;;4898719;29;20474;-85
2023/09/26 01:00:55;;;;;;;11.30;10.70;;;14.90;1.00;;;;;;4899763;29;20870;-86
2023/09/26 01:03:23;;;;;;;11.97;11.07;;;14.90;1.00;;;;;;4894143;29;20479;-84
2023/09/26 01:05:52;;;;;;;11.30;10.80;;;14.90;1.00;;;;;;4883019;29;20514;-84
2023/09/26 01:08:20;;;;;;;12.07;11.50;;;14.90;1.00;;;;;;4900012;29;20473;-84
2023/09/26 01:10:50;;;;;;;10.97;10.57;;;14.90;1.00;;;;;;4889268;29;20459;-82
2023/09/26 01:13:18;;;;;;;11.80;11.30;;;14.80;1.00;;;;;;4895253;29;20482;-84
2023/09/26 01:15:47;;;;;;;11.37;10.77;;;14.80;1.00;;;;;;4879610;29;20554;-84
2023/09/26 01:18:17;;;;;;;11.20;10.60;;;14.80;1.00;;;;;;4896716;29;20466;-84
2023/09/26 01:20:46;;;;;;;11.43;10.97;;;14.90;1.00;;;;;;4898860;29;20755;-85
2023/09/26 01:23:16;;;;;;;10.93;10.53;;;14.90;1.00;;;;;;4896507;29;20483;-84
2023/09/26 01:25:46;;;;;;;11.40;11.00;;;14.90;1.00;;;;;;4897874;29;20455;-85
2023/09/26 01:28:18;;;;;;;11.07;10.47;;;14.70;1.00;;;;;;4896604;29;21036;-81
2023/09/26 01:30:48;;;;;;;10.80;10.30;;;14.70;1.00;;;;;;4898966;29;20862;-84
2023/09/26 01:33:19;;;;;;;11.87;11.27;;;14.80;1.00;;;;;;4898519;29;20482;-85
2023/09/26 01:35:51;;;;;;;10.43;10.00;;;14.70;1.00;;;;;;4897687;29;20463;-81
2023/09/26 01:38:21;;;;;;;11.00;10.60;;;14.70;1.00;;;;;;4896531;29;20469;-83
2023/09/26 01:40:51;;;;;;;10.70;10.40;;;14.70;1.00;;;;;;4895172;29;20467;-84
2023/09/26 01:43:19;;;;;;;10.80;10.40;;;14.70;1.00;;;;;;4899045;29;20494;-82
2023/09/26 01:45:48;;;;;;;11.47;10.97;;;14.70;1.00;;;;;;4899172;29;20481;-80
2023/09/26 01:48:17;;;;;;;10.70;10.20;;;14.60;1.00;;;;;;4897993;29;20515;-83
2023/09/26 01:50:45;;;;;;;11.40;11.03;;;14.70;1.00;;;;;;4894738;29;20906;-80
2023/09/26 01:53:14;;;;;;;10.63;10.13;;;14.70;1.00;;;;;;4892484;29;20515;-82
2023/09/26 01:55:45;;;;;;;10.83;10.33;;;14.60;99.90;;;;;;4893873;29;20498;-81
2023/09/26 01:58:15;;;;;;;11.00;10.50;;;14.60;99.90;;;;;;4899399;29;20495;-83
2023/09/26 02:00:43;;;;;;;10.63;10.23;;;14.50;1.00;;;;;;4898247;29;20463;-83
2023/09/26 02:03:12;;;;;;;10.47;10.07;;;14.50;1.00;;;;;;4898650;29;20482;-81
2023/09/26 02:05:40;;;;;;;10.87;10.40;;;14.50;1.00;;;;;;4880488;29;21169;-83
2023/09/26 02:08:09;;;;;;;10.80;10.40;;;14.50;1.00;;;;;;4896215;29;20463;-83
2023/09/26 02:10:37;;;;;;;11.50;11.00;;;14.40;1.00;;;;;;4886527;29;20515;-85
2023/09/26 02:13:06;;;;;;;11.60;10.90;;;14.50;1.00;;;;;;4881812;29;20483;-82
2023/09/26 02:15:38;;;;;;;10.53;10.23;;;14.40;1.00;;;;;;4898247;29;20472;-85
2023/09/26 02:18:07;;;;;;;10.70;10.30;;;14.50;1.00;;;;;;4880135;29;20463;-84
2023/09/26 02:20:36;;;;;;;10.93;10.43;;;14.50;1.00;;;;;;4895381;29;20474;-84
2023/09/26 02:23:05;;;;;;;10.73;10.43;;;14.50;1.00;;;;;;4897865;29;20487;-83
2023/09/26 02:25:33;;;;;;;10.57;10.17;;;14.40;1.00;;;;;;4892403;29;20455;-84
2023/09/26 02:28:01;;;;;;;10.67;10.27;;;14.40;1.00;;;;;;4877903;29;21026;-84
2023/09/26 02:30:30;;;;;;;10.93;10.53;;;14.40;1.00;;;;;;4892702;29;20846;-82
2023/09/26 02:33:00;;;;;;;11.60;10.90;;;14.40;1.00;;;;;;4895849;29;20835;-84
2023/09/26 02:35:28;;;;;;;10.43;10.13;;;14.30;1.00;;;;;;4894509;29;20570;-83
2023/09/26 02:37:57;;;;;;;10.27;9.97;;;14.30;1.00;;;;;;4897468;29;20460;-79
2023/09/26 02:40:25;;;;;;;10.20;9.70;;;14.30;1.00;;;;;;4895390;29;20550;-84
2023/09/26 02:42:54;;;;;;;10.97;10.37;;;14.30;1.00;;;;;;4880219;29;20487;-83
2023/09/26 02:45:22;;;;;;;10.57;10.27;;;14.30;1.00;;;;;;4899042;29;20812;-84
2023/09/26 02:47:50;;;;;;;10.80;10.40;;;14.30;1.00;;;;;;4883561;29;20470;-82
2023/09/26 02:50:22;;;;;;;10.23;9.80;;;14.30;1.00;;;;;;4881832;29;20505;-87
2023/09/26 02:52:51;;;;;;;10.90;10.30;;;14.20;1.00;;;;;;4896428;29;20489;-85
2023/09/26 02:55:20;;;;;;;10.70;10.30;;;14.20;1.00;;;;;;4897395;29;20471;-85
2023/09/26 02:57:48;;;;;;;10.70;10.30;;;14.20;1.00;;;;;;4893372;29;20487;-83
2023/09/26 03:00:17;;;;;;;10.80;10.40;;;14.20;1.00;;;;;;4895019;29;20566;-85
2023/09/26 03:02:47;;;;;;;10.63;10.23;;;14.20;1.00;;;;;;4897308;29;20483;-84
2023/09/26 03:05:17;;;;;;;10.57;10.20;;;14.20;1.00;;;;;;4896871;29;20542;-84
2023/09/26 03:07:47;;;;;;;11.30;10.90;;;14.20;1.00;;;;;;4898053;29;20478;-86
2023/09/26 03:10:16;;;;;;;10.63;10.33;;;14.20;1.00;;;;;;4882059;29;20467;-87
2023/09/26 03:12:45;;;;;;;11.10;10.53;;;14.10;1.00;;;;;;4885989;29;20487;-84
2023/09/26 03:15:14;;;;;;;11.40;11.00;;;14.10;1.00;;;;;;4880170;29;20487;-82
2023/09/26 03:17:42;;;;;;;11.20;10.70;;;14.10;1.00;;;;;;4895151;29;20546;-84
2023/09/26 03:20:15;;;;;;;11.03;10.63;;;14.10;1.00;;;;;;4892868;29;20451;-82
2023/09/26 03:22:44;;;;;;;11.47;10.80;;;14.10;1.00;;;;;;4895294;29;20487;-83
2023/09/26 03:25:14;;;;;;;11.13;10.73;;;14.00;1.00;;;;;;4891114;29;20494;-81
2023/09/26 03:27:42;;;;;;;11.33;10.83;;;14.00;1.00;;;;;;4896577;29;20463;-83
2023/09/26 03:30:11;;;;;;;10.87;10.53;;;14.00;1.00;;;;;;4889897;29;20455;-82
2023/09/26 03:32:40;;;;;;;10.70;10.30;;;14.00;1.00;;;;;;4891702;29;20491;-86
2023/09/26 03:35:09;;;;;;;10.90;10.50;;;14.10;1.00;;;;;;4897934;29;20478;-83
2023/09/26 03:37:37;;;;;;;10.00;9.70;;;14.00;1.00;;;;;;4895311;29;20474;-85
2023/09/26 03:40:07;;;;;;;11.73;11.13;;;14.00;1.00;;;;;;4896526;29;20562;-81
2023/09/26 03:42:37;;;;;;;10.70;10.20;;;13.90;1.00;;;;;;4876114;29;20483;-83
2023/09/26 03:45:08;;;;;;;11.77;11.17;;;13.90;1.00;;;;;;4873109;29;20460;-85
2023/09/26 03:47:36;;;;;;;10.93;10.47;;;13.90;1.00;;;;;;4895432;29;21001;-85
2023/09/26 03:50:06;;;;;;;11.13;10.63;;;13.90;1.00;;;;;;4897603;29;20471;-81
2023/09/26 03:52:35;;;;;;;11.10;10.70;;;13.90;1.00;;;;;;4897030;29;20574;-83
2023/09/26 03:55:04;;;;;;;11.10;10.70;;;13.90;1.00;;;;;;4895622;29;20490;-84
2023/09/26 03:57:32;;;;;;;10.60;10.20;;;13.90;1.00;;;;;;4894737;29;21205;-81
2023/09/26 04:00:06;;;;;;;11.50;11.10;;;13.80;1.00;;;;;;4893054;29;20455;-84
2023/09/26 04:02:35;;;;;;;11.37;10.97;;;13.90;1.00;;;;;;4893197;29;20475;-81
2023/09/26 04:05:04;;;;;;;11.73;11.23;;;13.80;1.00;;;;;;4879378;29;20451;-81
2023/09/26 04:07:32;;;;;;;12.10;11.30;;;13.80;1.00;;;;;;4876121;29;20479;-80
2023/09/26 04:10:00;;;;;;;10.73;10.43;;;13.80;1.00;;;;;;4892634;29;20481;-82
2023/09/26 04:12:28;;;;;;;11.00;10.60;;;13.70;1.00;;;;;;4891127;29;20490;-80
2023/09/26 04:14:58;;;;;;;11.57;11.17;;;13.60;1.00;;;;;;4891551;29;20494;-80
2023/09/26 04:17:29;;;;;;;11.90;11.50;;;13.70;1.00;;;;;;4890150;29;20463;-83
2023/09/26 04:19:57;;;;;;;13.47;12.80;;;13.60;1.00;;;;;;4890542;29;20973;-81
2023/09/26 04:22:27;;;;;;;11.97;11.50;;;13.70;1.00;;;;;;4891056;29;20495;-80
2023/09/26 04:24:56;;;;;;;11.90;11.40;;;13.70;1.00;;;;;;4890110;29;20463;-80
2023/09/26 04:27:26;;;;;;;12.80;12.37;;;13.60;1.00;;;;;;4886878;29;20468;-81
2023/09/26 04:29:54;;;;;;;11.83;11.43;;;13.60;1.00;;;;;;4890908;29;20459;-81
2023/09/26 04:32:23;;;;;;;12.20;11.70;;;13.60;1.00;;;;;;4893098;29;20471;-80
2023/09/26 04:34:53;;;;;;;11.97;11.47;;;13.50;1.00;;;;;;4885503;29;20473;-78
2023/09/26 04:37:22;;;;;;;12.80;12.20;;;13.40;1.00;;;;;;4887147;29;20467;-81
2023/09/26 04:39:50;;;;;;;12.57;12.07;;;13.40;1.00;;;;;;4889687;29;20460;-81
2023/09/26 04:42:18;;;;;;;12.07;11.67;;;13.50;1.00;;;;;;4893389;29;20467;-79
2023/09/26 04:44:46;;;;;;;13.30;12.70;;;13.60;1.00;;;;;;4892334;29;20451;-81
2023/09/26 04:47:14;;;;;;;12.40;11.90;;;13.60;1.00;;;;;;4891874;29;20507;-83
2023/09/26 04:49:42;;;;;;;12.90;12.10;;;13.60;1.00;;;;;;4894399;29;20458;-81
2023/09/26 04:52:16;;;;;;;11.60;11.10;;;13.60;1.00;;;;;;4884678;29;20459;-80
2023/09/26 04:54:44;;;;;;;12.57;12.03;;;13.60;1.00;;;;;;4889524;29;20531;-80
2023/09/26 04:57:12;;;;;;;13.10;12.40;;;13.60;1.00;;;;;;4894440;29;20836;-81
2023/09/26 04:59:40;;;;;;;13.17;12.60;;;13.50;1.00;;;;;;4891601;29;20496;-81
2023/09/26 05:02:09;;;;;;;12.80;12.30;;;13.60;1.00;;;;;;4893146;29;20459;-81
2023/09/26 05:04:42;;;;;;;13.00;12.40;;;13.60;1.00;;;;;;4884904;29;20471;-82
2023/09/26 05:07:10;;;;;;;13.23;12.57;;;13.60;1.00;;;;;;4876249;29;20486;-82
2023/09/26 05:09:43;;;;;;;13.63;12.70;;;13.60;1.00;;;;;;4890437;29;20466;-83
2023/09/26 05:12:12;;;;;;;13.50;13.00;;;13.70;1.00;;;;;;4889076;29;20462;-84
2023/09/26 05:14:40;;;;;;;12.90;12.40;;;13.60;1.00;;;;;;4890195;29;20463;-84
2023/09/26 05:17:08;;;;;;;13.20;12.70;;;13.60;1.00;;;;;;4892298;29;20452;-82
2023/09/26 05:19:36;;;;;;;13.70;13.20;;;13.50;1.00;;;;;;4891295;29;20235;-82
2023/09/26 05:22:05;;;;;;;14.13;13.53;;;13.60;1.00;;;;;;4888100;29;21269;-83
2023/09/26 05:24:33;;;;;;;14.20;13.60;;;13.50;1.00;;;;;;4892456;29;20479;-82
2023/09/26 05:27:04;;;;;;;13.33;12.67;;;13.60;1.00;;;;;;4892864;29;20455;-81
2023/09/26 05:29:35;;;;;;;13.87;13.30;;;13.60;1.00;;;;;;4892931;29;20995;-81
2023/09/26 05:32:03;;;;;;;13.37;12.77;;;13.60;1.00;;;;;;4892100;29;20460;-81
2023/09/26 05:34:35;;;;;;;14.50;13.90;;;13.60;1.00;;;;;;4879905;29;20884;-82
2023/09/26 05:37:03;;;;;;;14.37;13.67;;;13.60;1.00;;;;;;4892617;29;20600;-82
2023/09/26 05:39:31;;;;;;;14.47;13.87;;;13.60;1.00;;;;;;4891731;29;20499;-82
2023/09/26 05:41:59;;;;;;;14.70;14.10;;;13.50;1.00;;;;;;4897017;29;20561;-81
2023/09/26 05:44:29;;;;;;;14.13;13.50;;;13.50;1.00;;;;;;4896145;29;20463;-83
2023/09/26 05:46:58;;;;;;;13.83;13.27;;;13.50;1.00;;;;;;4879442;29;20459;-81
2023/09/26 05:49:26;;;;;;;14.80;14.20;;;13.60;1.00;;;;;;4895900;29;20462;-83
2023/09/26 05:51:54;;;;;;;14.10;13.60;;;13.60;1.00;;;;;;4881104;29;20518;-83
2023/09/26 05:54:22;;;;;;;14.70;13.90;;;13.60;1.00;;;;;;4894094;29;20996;-82
2023/09/26 05:56:59;;;;;;;14.70;14.17;;;13.60;1.00;;;;;;4894055;29;20498;-82
2023/09/26 05:59:28;;;;;;;14.73;13.73;;;13.60;1.00;;;;;;4890885;29;20563;-80
2023/09/26 06:01:56;;;;;;;15.00;14.20;;;13.60;1.00;;;;;;4895953;29;20510;-84
2023/09/26 06:04:25;;;;;;;13.97;13.40;;;13.50;1.00;;;;;;4895305;29;20482;-82
2023/09/26 06:06:53;;;;;;;14.83;14.23;;;13.60;1.00;;;;;;4896727;29;20467;-83
2023/09/26 06:09:21;;;;;;;14.43;13.87;;;13.60;1.00;;;;;;4877614;29;20459;-81
2023/09/26 06:11:49;;;;;;;14.80;14.00;;;13.70;1.00;;;;;;4892514;29;20487;-81
2023/09/26 06:14:17;;;;;;;14.13;13.53;;;13.70;1.00;;;;;;4895860;29;20487;-82
2023/09/26 06:16:49;;;;;;;14.67;13.97;;;13.80;1.00;;;;;;4893981;29;20511;-83
2023/09/26 06:19:17;;;;;;;14.73;13.77;;;13.90;1.00;;;;;;4894493;29;20518;-81
2023/09/26 06:21:46;;;;;;;14.23;13.73;;;14.00;1.00;;;;;;4895072;29;20949;-81
2023/09/26 06:24:14;;;;;;;13.93;13.30;;;14.00;1.00;;;;;;4876062;29;20483;-82
2023/09/26 06:26:42;;;;;;;17.30;16.40;;;14.00;1.00;;;;;;4896065;29;20448;-81
2023/09/26 06:29:10;;;;;;;15.20;14.43;;;14.10;1.00;;;;;;4899565;29;20474;-81
2023/09/26 06:31:42;;;;;;;13.53;12.93;;;14.10;1.00;;;;;;4898488;29;20500;-81
2023/09/26 06:34:12;;;;;;;14.83;14.07;;;14.20;1.00;;;;;;4896289;29;20475;-81
2023/09/26 06:36:44;;;;;;;15.37;14.57;;;14.40;1.00;;;;;;4893212;29;20486;-82
2023/09/26 06:39:12;;;;;;;14.80;14.20;;;14.40;1.00;;;;;;4896413;29;20463;-83
2023/09/26 06:41:40;;;;;;;15.60;14.70;;;14.50;1.00;;;;;;4894951;29;21008;-82
2023/09/26 06:44:09;;;;;;;15.77;15.03;;;14.50;1.00;;;;;;4893546;29;20534;-82
2023/09/26 06:46:38;;;;;;;15.23;14.43;;;14.60;1.00;;;;;;4892920;29;20455;-82
2023/09/26 06:49:06;;;;;;;16.07;14.83;;;14.60;1.00;;;;;;4876187;29;20455;-81
2023/09/26 06:51:38;;;;;;;15.70;14.90;;;14.60;1.00;;;;;;4891982;29;20586;-80
2023/09/26 06:54:07;;;;;;;15.77;15.07;;;14.60;1.00;;;;;;4893246;29;20486;-83
2023/09/26 06:56:35;;;;;;;16.03;15.33;;;14.60;1.00;;;;;;4896993;29;20490;-83
2023/09/26 06:59:04;;;;;;;15.63;14.83;;;14.70;1.00;;;;;;4892150;29;20836;-81
2023/09/26 07:01:33;;;;;;;15.00;14.30;;;14.80;1.00;;;;;;4890156;29;20452;-83
2023/09/26 07:04:01;;;;;;;15.77;14.67;;;14.80;1.00;;;;;;4893407;29;20486;-80
2023/09/26 07:06:30;;;;;;;15.37;14.47;;;14.80;1.00;;;;;;4893766;29;20463;-82
2023/09/26 07:09:00;;;;;;;16.33;15.43;;;14.90;1.00;;;;;;4894842;29;20523;-81
2023/09/26 07:11:28;;;;;;;17.10;15.90;;;14.90;1.00;;;;;;4893387;29;20595;-81
2023/09/26 07:13:56;;;;;;;15.33;14.63;;;15.00;1.00;;;;;;4895476;29;20468;-81
2023/09/26 07:16:25;;;;;;;15.10;14.40;;;15.10;1.00;;;;;;4893236;29;20582;-83
2023/09/26 07:18:53;;;;;;;15.47;14.87;;;15.30;1.00;;;;;;4878348;29;20538;-80
2023/09/26 07:21:22;;;;;;;15.60;15.10;;;15.30;1.00;;;;;;4891100;29;20463;-81
2023/09/26 07:23:50;;;;;;;16.40;15.60;;;15.40;1.00;;;;;;4893678;29;20483;-81
2023/09/26 07:26:20;;;;;;;16.13;15.40;;;15.40;1.00;;;;;;4878544;29;20479;-80
2023/09/26 07:28:49;;;;;;;15.43;14.83;;;15.60;1.00;;;;;;4892218;29;20460;-82
2023/09/26 07:31:19;;;;;;;15.53;14.83;;;15.70;1.00;;;;;;4896069;29;21035;-82
2023/09/26 07:33:47;;;;;;;16.23;15.20;;;15.80;1.00;;;;;;4888044;29;20515;-80
2023/09/26 07:36:16;;;;;;;15.27;14.67;;;15.90;1.00;;;;;;4895188;29;20451;-83
2023/09/26 07:38:45;;;;;;;16.40;15.70;;;15.90;1.00;;;;;;4883825;29;20550;-83
2023/09/26 07:41:13;;;;;;;15.40;14.80;;;16.00;1.00;;;;;;4894571;29;20466;-81
2023/09/26 07:43:42;;;;;;;17.20;16.37;;;16.20;1.00;;;;;;4892868;29;20487;-81
2023/09/26 07:46:12;;;;;;;16.10;15.50;;;16.50;1.00;;;;;;4892636;29;20471;-80
2023/09/26 07:48:40;;;;;;;16.53;15.83;;;17.00;1.00;;;;;;4876010;29;20558;-83
2023/09/26 07:51:10;;;;;;;16.97;16.30;;;17.30;1.00;;;;;;4894497;29;20533;-81
2023/09/26 07:53:43;;;;;;;16.47;15.77;;;17.50;1.00;;;;;;4891733;29;20490;-84
2023/09/26 07:56:11;;;;;;;16.20;15.67;;;18.00;1.00;;;;;;4894506;29;20452;-82
2023/09/26 07:58:39;;;;;;;16.20;15.40;;;18.60;99.90;;;;;;4892813;29;20499;-83
2023/09/26 08:01:09;;;;;;;16.73;16.13;;;19.30;99.90;;;;;;4892598;29;20455;-84
2023/09/26 08:03:40;;;;;;;17.00;16.30;;;19.60;99.90;;;;;;4892136;29;20491;-82
2023/09/26 08:06:09;;;;;;;16.03;15.43;;;20.10;99.90;;;;;;4891197;29;20463;-84
2023/09/26 08:08:38;;;;;;;16.60;16.00;;;20.50;99.90;;;;;;4891851;29;20463;-83
2023/09/26 08:11:07;;;;;;;16.67;15.97;;;20.80;99.90;;;;;;4893175;29;20535;-82
2023/09/26 08:13:36;;;;;;;17.30;16.50;;;21.10;99.90;;;;;;4891661;29;20486;-82
2023/09/26 08:16:05;;;;;;;16.63;15.93;;;21.10;99.90;;;;;;4889168;29;20455;-82
2023/09/26 08:18:35;;;;;;;17.37;16.50;;;21.60;99.90;;;;;;4886207;29;20562;-82
2023/09/26 08:21:03;;;;;;;16.77;15.77;;;22.00;99.90;;;;;;4875902;29;20853;-81
2023/09/26 08:23:33;;;;;;;17.73;16.97;;;22.30;99.90;;;;;;4892624;29;20484;-84
2023/09/26 08:26:02;;;;;;;17.20;16.40;;;22.70;99.90;;;;;;4888631;29;20550;-80
2023/09/26 08:28:31;;;;;;;17.37;16.67;;;22.80;99.90;;;;;;4888709;29;20469;-80
2023/09/26 08:31:05;;;;;;;18.80;17.70;;;23.20;99.90;;;;;;4892318;29;20451;-80
2023/09/26 08:33:35;;;;;;;17.90;17.20;;;23.50;99.90;;;;;;4892592;29;21179;-80
2023/09/26 08:36:05;;;;;;;17.40;16.80;;;23.80;99.90;;;;;;4893670;29;20443;-80
2023/09/26 08:38:33;;;;;;;17.30;16.60;;;24.10;99.90;;;;;;4890673;29;20491;-80
2023/09/26 08:41:06;;;;;;;17.90;17.10;;;24.10;99.90;;;;;;4888850;29;20467;-80
2023/09/26 08:43:34;;;;;;;16.80;16.20;;;24.40;99.90;;;;;;4887581;29;21110;-80
2023/09/26 08:46:04;;;;;;;16.60;16.00;;;24.70;99.90;;;;;;4894630;29;20456;-81
2023/09/26 08:48:33;;;;;;;16.70;16.10;;;24.90;99.90;;;;;;4891167;29;20515;-81
2023/09/26 08:51:02;;;;;;;16.03;15.53;;;25.30;99.90;;;;;;4889921;29;20460;-82
2023/09/26 08:53:30;;;;;;;17.53;16.30;;;25.60;99.90;;;;;;4893692;29;20479;-81
2023/09/26 08:55:59;;;;;;;16.60;16.00;;;25.70;99.90;;;;;;4892211;29;20482;-80
2023/09/26 08:58:28;;;;;;;16.73;16.13;;;25.40;99.90;;;;;;4886571;29;22359;-81
2023/09/26 09:00:56;;;;;;;17.20;16.40;;;25.90;99.90;;;;;;4892948;29;20496;-81
2023/09/26 09:03:25;;;;;;;16.63;15.93;;;26.20;99.90;;;;;;4891249;29;20487;-82
2023/09/26 09:05:53;;;;;;;17.03;16.20;;;26.80;99.90;;;;;;4888001;29;20485;-81
2023/09/26 09:08:23;;;;;;;16.20;15.70;;;27.20;99.90;;;;;;4888913;29;20448;-82
2023/09/26 09:10:53;;;;;;;16.60;15.90;;;27.40;99.90;;;;;;4888111;29;20867;-81
2023/09/26 09:13:29;;;;;;;16.37;15.67;;;27.80;99.90;;;;;;4894092;29;20572;-81
2023/09/26 09:16:11;;;;;;;17.07;16.47;;;28.20;99.90;;;;;;4895894;29;20551;-82
2023/09/26 09:18:42;;;;;;;16.80;16.20;;;28.60;99.90;;;;;;4894826;29;20502;-82
2023/09/26 09:21:22;;;;;;;16.40;15.90;;;28.70;99.90;;;;;;4889627;29;20898;-82
2023/09/26 09:23:53;;;;;;;16.87;15.93;;;29.10;99.90;;;;;;4894998;29;20541;-83
2023/09/26 09:26:22;;;;;;;15.83;15.23;;;29.60;99.90;;;;;;4891746;29;20461;-82
2023/09/26 09:28:52;;;;;;;17.70;16.77;;;29.40;99.90;;;;;;4896038;29;21007;-81
2023/09/26 09:31:22;;;;;;;16.43;15.80;;;29.30;99.90;;;;;;4898322;29;20474;-82
2023/09/26 09:33:52;;;;;;;16.00;15.40;;;29.50;99.90;;;;;;4898283;29;20493;-81
2023/09/26 09:36:20;;;;;;;16.30;15.70;;;29.40;99.90;;;;;;4898003;29;20463;-82
2023/09/26 09:38:57;;;;;;;16.80;16.20;;;30.00;99.90;;;;;;4895477;29;20485;-83
2023/09/26 09:41:25;;;;;;;16.80;15.93;;;30.40;99.90;;;;;;4882085;29;21173;-81
2023/09/26 09:43:55;;;;;;;16.03;15.53;;;30.20;99.90;;;;;;4897851;29;20510;-82
2023/09/26 09:46:32;;;;;;;15.47;14.93;;;30.20;99.90;;;;;;4897619;29;20845;-82
2023/09/26 09:49:08;;;;;;;15.10;14.30;;;30.30;99.90;;;;;;4898995;29;21350;-80
2023/09/26 09:51:39;;;;;;;15.27;14.57;;;30.10;99.90;;;;;;4896069;29;20473;-81
2023/09/26 09:54:13;;;;;;;15.67;15.17;;;29.40;99.90;;;;;;4899120;29;20487;-81
2023/09/26 09:56:45;;;;;;;14.87;14.27;;;28.50;99.90;;;;;;4896726;29;20557;-80
2023/09/26 09:59:16;;;;;;;14.70;14.20;;;27.70;99.90;;;;;;4898316;29;20593;-81
2023/09/26 10:01:49;;;;;;;15.60;15.00;;;27.10;99.90;;;;;;4897061;29;20507;-80
2023/09/26 10:04:20;;;;;;;14.67;14.23;;;26.70;99.90;;;;;;4896996;29;20476;-81
2023/09/26 10:06:52;;;;;;;15.77;15.23;;;26.50;99.90;;;;;;4894591;29;20515;-81
2023/09/26 10:09:24;;;;;;;15.07;14.63;;;26.30;99.90;;;;;;4897758;29;20455;-81
2023/09/26 10:11:54;;;;;;;14.83;14.33;;;26.20;99.90;;;;;;4894641;29;20996;-81
2023/09/26 10:14:28;;;;;;;14.20;13.70;;;26.10;99.90;;;;;;4879705;29;20479;-81
2023/09/26 10:16:57;;;;;;;14.53;13.97;;;25.90;99.90;;;;;;4898962;29;20481;-81
2023/09/26 10:38:12;;;;;;;14.90;14.50;;;26.20;99.90;;;;;;5162223;23;20511;-83
2023/09/26 10:40:51;;;;;;;14.50;14.00;;;26.50;99.90;;;;;;4899154;29;20462;-83
2023/09/26 10:46:21;;;;;;;14.07;13.57;;;26.90;99.90;;;;;;5197392;23;21114;-83
2023/09/26 10:48:57;;;;;;;14.17;13.67;;;26.80;99.90;;;;;;4919354;29;21313;-83
2023/09/26 10:59:22;;;;;;;15.07;14.47;;;27.20;99.90;;;;;;4874785;29;20473;-82
2023/09/26 11:01:54;;;;;;;14.40;14.00;;;27.00;99.90;;;;;;4874328;29;20520;-82
2023/09/26 11:04:24;;;;;;;14.00;13.60;;;27.30;99.90;;;;;;4871210;29;20481;-83
2023/09/26 11:06:54;;;;;;;14.23;13.83;;;27.70;99.90;;;;;;4871112;29;20503;-82
2023/09/26 11:09:23;;;;;;;13.90;13.40;;;28.10;99.90;;;;;;4873723;29;20464;-81
2023/09/26 11:11:54;;;;;;;14.20;13.70;;;28.80;99.90;;;;;;4873204;29;20479;-82
2023/09/26 11:18:33;;;;;;;12.43;12.13;;;30.30;99.90;;;;;;4854637;29;20592;-83
2023/09/26 11:21:01;;;;;;;12.83;12.33;;;28.50;99.90;;;;;;4870608;29;20499;-81
2023/09/26 11:23:49;;;;;;;13.03;12.63;;;27.40;99.90;;;;;;4869061;29;20562;-79
2023/09/26 11:26:18;;;;;;;13.17;12.77;;;26.80;99.90;;;;;;4868903;29;20486;-81
2023/09/26 11:28:46;;;;;;;12.87;12.57;;;26.50;99.90;;;;;;4876240;29;20449;-81
2023/09/26 11:31:15;;;;;;;13.17;12.80;;;26.20;99.90;;;;;;4864019;29;20487;-81
2023/09/26 11:33:45;;;;;;;12.53;12.13;;;26.00;99.90;;;;;;4868232;29;20481;-79
2023/09/26 11:36:15;;;;;;;12.63;12.23;;;25.90;99.90;;;;;;4869327;29;20462;-81
2023/09/26 11:38:48;;;;;;;13.03;12.53;;;25.80;99.90;;;;;;4868835;29;20529;-80
2023/09/26 11:41:19;;;;;;;12.80;12.47;;;25.70;99.90;;;;;;4867705;29;20459;-79
2023/09/26 11:43:55;;;;;;;12.80;12.40;;;25.70;99.90;;;;;;4867467;29;20505;-79
2023/09/26 11:46:25;;;;;;;13.00;12.53;;;25.70;99.90;;;;;;4868752;29;20522;-82
2023/09/26 11:48:56;;;;;;;13.03;12.53;;;25.70;99.90;;;;;;4866066;29;20457;-82
2023/09/26 11:51:25;;;;;;;13.40;12.87;;;25.60;99.90;;;;;;4871069;29;20462;-83
2023/09/26 11:53:53;;;;;;;12.73;12.43;;;25.60;99.90;;;;;;4867458;29;21034;-82
2023/09/26 11:56:27;;;;;;;12.70;12.30;;;25.60;99.90;;;;;;4870137;29;20456;-82
2023/09/26 11:58:55;;;;;;;12.40;12.10;;;25.60;99.90;;;;;;4867593;29;21114;-81
2023/09/26 12:10:07;;;;;;;12.37;12.07;;;25.50;99.90;;;;;;4816853;29;20527;-83
2023/09/26 12:12:36;;;;;;;12.40;12.00;;;25.50;99.90;;;;;;4824706;29;20497;-80
2023/09/26 12:15:46;;;;;;;12.77;12.37;;;25.40;99.90;;;;;;4892449;29;20470;-80
2023/09/26 12:18:19;;;;;;;12.90;12.07;;;25.30;99.90;;;;;;4889839;29;21483;-80
2023/09/26 12:20:55;;;;;;;12.40;12.10;;;25.20;99.90;;;;;;4894472;29;20522;-81
2023/09/26 12:23:26;;;;;;;12.10;11.70;;;25.10;99.90;;;;;;4897736;29;20485;-81
2023/09/26 12:26:09;;;;;;;12.27;11.87;;;25.10;99.90;;;;;;4896764;29;20459;-81
2023/09/26 12:28:49;;;;;;;12.13;11.73;;;25.20;99.90;;;;;;4898335;29;22276;-82
2023/09/26 12:31:39;;;;;;;11.90;11.60;;;25.20;99.90;;;;;;4898959;29;20458;-82
2023/09/26 12:39:03;;;;;;;11.40;11.10;;;25.40;99.90;;;;;;4730612;30;20481;-80
2023/09/26 12:45:03;;;;;;;11.70;11.30;;;25.40;99.90;;;;;;4914511;29;20474;-82
2023/09/26 12:48:01;;;;;;;11.70;11.30;;;25.40;99.90;;;;;;4916869;29;20482;-82
2023/09/26 12:50:46;;;;;;;11.20;10.90;;;25.20;99.90;;;;;;4900278;29;21003;-79
2023/09/26 12:53:58;;;;;;;11.50;11.20;;;25.30;99.90;;;;;;4915997;29;20497;-79
2023/09/26 12:57:02;;;;;;;11.53;11.23;;;25.30;99.90;;;;;;4913451;29;20469;-80
2023/09/26 13:02:30;;;;;;;10.90;10.70;;;25.40;99.90;;;;;;4901999;29;20493;-82
2023/09/26 13:04:59;;;;;;;11.20;10.97;;;25.40;99.90;;;;;;4916433;29;20454;-81
2023/09/26 13:07:28;;;;;;;10.77;10.47;;;25.40;99.90;;;;;;4918516;29;21225;-84
2023/09/26 13:09:56;;;;;;;10.50;10.30;;;25.40;99.90;;;;;;4920384;29;20458;-86
2023/09/26 13:12:24;;;;;;;10.57;10.37;;;25.40;99.90;;;;;;4921262;29;21440;-83
2023/09/26 13:14:53;;;;;;;10.20;10.00;;;25.40;99.90;;;;;;4918093;29;20446;-85
2023/09/26 13:17:23;;;;;;;10.00;9.80;;;25.30;99.90;;;;;;4924234;29;21069;-84
2023/09/26 13:27:47;;;;;;;11.10;10.70;;;25.40;99.90;;;;;;4918091;29;20466;-84
2023/09/26 13:34:27;;;;;;;9.70;9.50;;;25.30;99.90;;;;;;4918726;29;21272;-84
2023/09/26 13:37:36;;;;;;;9.20;9.00;;;25.30;99.90;;;;;;4910704;29;21065;-83
2023/09/26 13:40:49;;;;;;;9.60;9.17;;;25.40;99.90;;;;;;4919919;29;21154;-85
2023/09/26 13:43:43;;;;;;;9.40;9.10;;;25.40;99.90;;;;;;4918360;29;20494;-86
2023/09/26 13:46:46;;;;;;;8.80;8.60;;;25.40;99.90;;;;;;4916782;29;20465;-85
2023/09/26 13:50:07;;;;;;;8.67;8.47;;;25.40;99.90;;;;;;4916722;29;20494;-85
2023/09/26 13:53:51;;;;;;;8.50;8.30;;;25.40;99.90;;;;;;4920944;29;20506;-88
2023/09/26 13:56:23;;;;;;;7.83;7.63;;;25.40;99.90;;;;;;4917829;29;20492;-84
2023/09/26 13:59:33;;;;;;;8.30;8.10;;;25.20;99.90;;;;;;4921892;29;20458;-84